sensor_id;sensor_type;location;lat;lon;timestamp;P1;durP1;ratioP1;P2;durP2;ratioP2
8098;SDS011;4092;47.876;9.372;2023-04-25T00:00:04;3.67;;;2.40;;
8098;SDS011;4092;47.876;9.372;2023-04-25T00:02:33;1.50;;;1.40;;
8098;SDS011;4092;47.876;9.372;2023-04-25T00:05:01;3.63;;;2.77;;
8098;SDS011;4092;47.876;9.372;2023-04-25T00:07:28;1.93;;;1.73;;
8098;SDS011;4092;47.876;9.372;2023-04-25T00:09:56;3.23;;;2.10;;
8098;SDS011;4092;47.876;9.372;2023-04-25T00:12:23;2.50;;;2.00;;
8098;SDS011;4092;47.876;9.372;2023-04-25T00:14:50;6.30;;;3.20;;
8098;SDS011;4092;47.876;9.372;2023-04-25T00:17:19;3.47;;;2.00;;
8098;SDS011;4092;47.876;9.372;2023-04-25T00:19:47;1.83;;;1.73;;
8098;SDS011;4092;47.876;9.372;2023-04-25T00:22:14;1.83;;;1.63;;
8098;SDS011;4092;47.876;9.372;2023-04-25T00:24:42;2.20;;;1.73;;
8098;SDS011;4092;47.876;9.372;2023-04-25T00:27:09;1.93;;;1.67;;
8098;SDS011;4092;47.876;9.372;2023-04-25T00:29:36;1.73;;;1.63;;
8098;SDS011;4092;47.876;9.372;2023-04-25T00:32:03;3.20;;;1.80;;
8098;SDS011;4092;47.876;9.372;2023-04-25T00:34:32;3.30;;;1.70;;
8098;SDS011;4092;47.876;9.372;2023-04-25T00:36:59;1.03;;;0.93;;
8098;SDS011;4092;47.876;9.372;2023-04-25T00:39:27;6.57;;;2.03;;
8098;SDS011;4092;47.876;9.372;2023-04-25T00:41:54;1.60;;;1.33;;
8098;SDS011;4092;47.876;9.372;2023-04-25T00:44:21;2.67;;;1.83;;
8098;SDS011;4092;47.876;9.372;2023-04-25T00:46:51;5.20;;;2.27;;
8098;SDS011;4092;47.876;9.372;2023-04-25T00:49:19;2.97;;;1.40;;
8098;SDS011;4092;47.876;9.372;2023-04-25T00:51:48;4.30;;;1.83;;
8098;SDS011;4092;47.876;9.372;2023-04-25T00:54:15;2.30;;;1.20;;
8098;SDS011;4092;47.876;9.372;2023-04-25T00:56:43;3.00;;;1.20;;
8098;SDS011;4092;47.876;9.372;2023-04-25T00:59:11;1.40;;;1.30;;
8098;SDS011;4092;47.876;9.372;2023-04-25T01:01:40;3.00;;;1.97;;
8098;SDS011;4092;47.876;9.372;2023-04-25T01:04:08;4.70;;;2.10;;
8098;SDS011;4092;47.876;9.372;2023-04-25T01:06:36;1.97;;;1.60;;
8098;SDS011;4092;47.876;9.372;2023-04-25T01:09:05;2.03;;;1.80;;
8098;SDS011;4092;47.876;9.372;2023-04-25T01:11:32;1.53;;;1.37;;
8098;SDS011;4092;47.876;9.372;2023-04-25T01:13:59;6.03;;;2.57;;
8098;SDS011;4092;47.876;9.372;2023-04-25T01:16:27;2.50;;;1.43;;
8098;SDS011;4092;47.876;9.372;2023-04-25T01:18:54;2.30;;;1.53;;
8098;SDS011;4092;47.876;9.372;2023-04-25T01:21:23;3.07;;;2.10;;
8098;SDS011;4092;47.876;9.372;2023-04-25T01:23:52;2.27;;;1.87;;
8098;SDS011;4092;47.876;9.372;2023-04-25T01:26:20;1.83;;;1.40;;
8098;SDS011;4092;47.876;9.372;2023-04-25T01:28:48;2.27;;;1.40;;
8098;SDS011;4092;47.876;9.372;2023-04-25T01:31:16;2.33;;;1.73;;
8098;SDS011;4092;47.876;9.372;2023-04-25T01:33:44;2.13;;;1.30;;
8098;SDS011;4092;47.876;9.372;2023-04-25T01:36:12;1.63;;;1.53;;
8098;SDS011;4092;47.876;9.372;2023-04-25T01:38:41;2.80;;;1.40;;
8098;SDS011;4092;47.876;9.372;2023-04-25T01:41:09;1.83;;;1.50;;
8098;SDS011;4092;47.876;9.372;2023-04-25T01:43:36;5.07;;;1.40;;
8098;SDS011;4092;47.876;9.372;2023-04-25T01:46:03;1.97;;;1.80;;
8098;SDS011;4092;47.876;9.372;2023-04-25T01:48:30;3.13;;;1.60;;
8098;SDS011;4092;47.876;9.372;2023-04-25T01:50:57;4.87;;;1.90;;
8098;SDS011;4092;47.876;9.372;2023-04-25T01:53:24;1.93;;;1.60;;
8098;SDS011;4092;47.876;9.372;2023-04-25T01:55:53;2.00;;;1.50;;
8098;SDS011;4092;47.876;9.372;2023-04-25T01:58:20;1.60;;;1.20;;
8098;SDS011;4092;47.876;9.372;2023-04-25T02:00:48;1.77;;;1.40;;
8098;SDS011;4092;47.876;9.372;2023-04-25T02:03:16;2.70;;;1.83;;
8098;SDS011;4092;47.876;9.372;2023-04-25T02:05:43;2.30;;;1.10;;
8098;SDS011;4092;47.876;9.372;2023-04-25T02:08:10;8.00;;;1.43;;
8098;SDS011;4092;47.876;9.372;2023-04-25T02:10:37;2.33;;;1.77;;
8098;SDS011;4092;47.876;9.372;2023-04-25T02:13:05;5.83;;;1.73;;
8098;SDS011;4092;47.876;9.372;2023-04-25T02:15:32;3.30;;;1.90;;
8098;SDS011;4092;47.876;9.372;2023-04-25T02:18:00;1.50;;;1.30;;
8098;SDS011;4092;47.876;9.372;2023-04-25T02:20:29;5.10;;;1.73;;
8098;SDS011;4092;47.876;9.372;2023-04-25T02:22:56;16.87;;;1.80;;
8098;SDS011;4092;47.876;9.372;2023-04-25T02:25:23;5.33;;;2.10;;
8098;SDS011;4092;47.876;9.372;2023-04-25T02:27:51;5.13;;;2.40;;
8098;SDS011;4092;47.876;9.372;2023-04-25T02:30:20;1.57;;;1.10;;
8098;SDS011;4092;47.876;9.372;2023-04-25T02:32:47;2.37;;;1.70;;
8098;SDS011;4092;47.876;9.372;2023-04-25T02:35:14;2.07;;;1.77;;
8098;SDS011;4092;47.876;9.372;2023-04-25T02:37:42;2.63;;;1.47;;
8098;SDS011;4092;47.876;9.372;2023-04-25T02:40:10;2.80;;;1.87;;
8098;SDS011;4092;47.876;9.372;2023-04-25T02:42:37;2.30;;;2.10;;
8098;SDS011;4092;47.876;9.372;2023-04-25T02:45:05;3.13;;;2.00;;
8098;SDS011;4092;47.876;9.372;2023-04-25T02:47:34;1.97;;;1.67;;
8098;SDS011;4092;47.876;9.372;2023-04-25T02:50:01;3.43;;;1.40;;
8098;SDS011;4092;47.876;9.372;2023-04-25T02:52:28;1.40;;;1.30;;
8098;SDS011;4092;47.876;9.372;2023-04-25T02:54:55;2.27;;;1.80;;
8098;SDS011;4092;47.876;9.372;2023-04-25T02:57:22;3.97;;;3.13;;
8098;SDS011;4092;47.876;9.372;2023-04-25T02:59:50;2.10;;;1.40;;
8098;SDS011;4092;47.876;9.372;2023-04-25T03:02:17;1.63;;;1.40;;
8098;SDS011;4092;47.876;9.372;2023-04-25T03:04:45;1.80;;;1.50;;
8098;SDS011;4092;47.876;9.372;2023-04-25T03:07:13;3.90;;;2.30;;
8098;SDS011;4092;47.876;9.372;2023-04-25T03:09:40;2.80;;;2.03;;
8098;SDS011;4092;47.876;9.372;2023-04-25T03:12:06;2.07;;;1.33;;
8098;SDS011;4092;47.876;9.372;2023-04-25T03:14:33;2.47;;;1.70;;
8098;SDS011;4092;47.876;9.372;2023-04-25T03:17:01;2.23;;;1.30;;
8098;SDS011;4092;47.876;9.372;2023-04-25T03:19:28;4.00;;;2.30;;
8098;SDS011;4092;47.876;9.372;2023-04-25T03:21:56;1.90;;;1.70;;
8098;SDS011;4092;47.876;9.372;2023-04-25T03:24:23;2.43;;;2.23;;
8098;SDS011;4092;47.876;9.372;2023-04-25T03:26:52;2.53;;;1.67;;
8098;SDS011;4092;47.876;9.372;2023-04-25T03:29:19;1.77;;;1.57;;
8098;SDS011;4092;47.876;9.372;2023-04-25T03:31:49;2.27;;;1.60;;
8098;SDS011;4092;47.876;9.372;2023-04-25T03:34:16;3.50;;;1.77;;
8098;SDS011;4092;47.876;9.372;2023-04-25T03:36:43;8.30;;;2.40;;
8098;SDS011;4092;47.876;9.372;2023-04-25T03:39:12;3.47;;;2.60;;
8098;SDS011;4092;47.876;9.372;2023-04-25T03:41:39;5.70;;;2.03;;
8098;SDS011;4092;47.876;9.372;2023-04-25T03:44:06;2.63;;;2.43;;
8098;SDS011;4092;47.876;9.372;2023-04-25T03:46:32;2.77;;;1.70;;
8098;SDS011;4092;47.876;9.372;2023-04-25T03:48:59;9.13;;;2.10;;
8098;SDS011;4092;47.876;9.372;2023-04-25T03:51:26;3.57;;;1.77;;
8098;SDS011;4092;47.876;9.372;2023-04-25T03:53:54;3.30;;;1.73;;
8098;SDS011;4092;47.876;9.372;2023-04-25T03:56:22;2.07;;;1.73;;
8098;SDS011;4092;47.876;9.372;2023-04-25T03:58:49;2.70;;;1.97;;
8098;SDS011;4092;47.876;9.372;2023-04-25T04:01:16;5.70;;;1.53;;
8098;SDS011;4092;47.876;9.372;2023-04-25T04:03:43;5.77;;;2.10;;
8098;SDS011;4092;47.876;9.372;2023-04-25T04:06:10;1.70;;;1.30;;
8098;SDS011;4092;47.876;9.372;2023-04-25T04:08:38;3.83;;;2.07;;
8098;SDS011;4092;47.876;9.372;2023-04-25T04:11:05;3.37;;;2.10;;
8098;SDS011;4092;47.876;9.372;2023-04-25T04:13:33;9.57;;;1.83;;
8098;SDS011;4092;47.876;9.372;2023-04-25T04:16:01;1.63;;;1.50;;
8098;SDS011;4092;47.876;9.372;2023-04-25T04:18:29;3.40;;;1.80;;
8098;SDS011;4092;47.876;9.372;2023-04-25T04:20:56;2.53;;;2.00;;
8098;SDS011;4092;47.876;9.372;2023-04-25T04:23:23;2.33;;;1.80;;
8098;SDS011;4092;47.876;9.372;2023-04-25T04:25:52;2.07;;;1.67;;
8098;SDS011;4092;47.876;9.372;2023-04-25T04:28:19;2.20;;;1.70;;
8098;SDS011;4092;47.876;9.372;2023-04-25T04:30:48;1.73;;;1.63;;
8098;SDS011;4092;47.876;9.372;2023-04-25T04:33:16;2.33;;;1.60;;
8098;SDS011;4092;47.876;9.372;2023-04-25T04:35:45;3.77;;;2.40;;
8098;SDS011;4092;47.876;9.372;2023-04-25T04:38:13;1.80;;;1.60;;
8098;SDS011;4092;47.876;9.372;2023-04-25T04:40:41;1.50;;;1.40;;
8098;SDS011;4092;47.876;9.372;2023-04-25T04:43:08;2.30;;;2.10;;
8098;SDS011;4092;47.876;9.372;2023-04-25T04:45:36;3.10;;;1.87;;
8098;SDS011;4092;47.876;9.372;2023-04-25T04:48:06;3.43;;;1.70;;
8098;SDS011;4092;47.876;9.372;2023-04-25T04:50:33;2.60;;;2.00;;
8098;SDS011;4092;47.876;9.372;2023-04-25T04:53:01;2.17;;;1.90;;
8098;SDS011;4092;47.876;9.372;2023-04-25T04:55:30;3.67;;;1.47;;
8098;SDS011;4092;47.876;9.372;2023-04-25T04:57:57;3.87;;;1.77;;
8098;SDS011;4092;47.876;9.372;2023-04-25T05:00:24;2.40;;;1.47;;
8098;SDS011;4092;47.876;9.372;2023-04-25T05:02:52;3.00;;;1.97;;
8098;SDS011;4092;47.876;9.372;2023-04-25T05:05:22;2.73;;;1.77;;
8098;SDS011;4092;47.876;9.372;2023-04-25T05:07:51;2.67;;;1.90;;
8098;SDS011;4092;47.876;9.372;2023-04-25T05:10:18;2.20;;;2.00;;
8098;SDS011;4092;47.876;9.372;2023-04-25T05:12:46;10.63;;;2.90;;
8098;SDS011;4092;47.876;9.372;2023-04-25T05:15:13;3.10;;;2.13;;
8098;SDS011;4092;47.876;9.372;2023-04-25T05:17:42;2.37;;;2.03;;
8098;SDS011;4092;47.876;9.372;2023-04-25T05:20:09;2.60;;;1.90;;
8098;SDS011;4092;47.876;9.372;2023-04-25T05:22:38;2.57;;;1.83;;
8098;SDS011;4092;47.876;9.372;2023-04-25T05:25:06;2.57;;;1.80;;
8098;SDS011;4092;47.876;9.372;2023-04-25T05:27:35;2.17;;;1.83;;
8098;SDS011;4092;47.876;9.372;2023-04-25T05:30:05;4.70;;;2.53;;
8098;SDS011;4092;47.876;9.372;2023-04-25T05:32:34;2.77;;;1.97;;
8098;SDS011;4092;47.876;9.372;2023-04-25T05:35:02;4.13;;;2.10;;
8098;SDS011;4092;47.876;9.372;2023-04-25T05:37:40;3.73;;;2.03;;
8098;SDS011;4092;47.876;9.372;2023-04-25T05:40:07;9.33;;;2.50;;
8098;SDS011;4092;47.876;9.372;2023-04-25T05:42:35;4.63;;;2.00;;
8098;SDS011;4092;47.876;9.372;2023-04-25T05:45:02;2.07;;;1.73;;
8098;SDS011;4092;47.876;9.372;2023-04-25T05:47:31;3.37;;;1.67;;
8098;SDS011;4092;47.876;9.372;2023-04-25T05:49:59;2.40;;;1.83;;
8098;SDS011;4092;47.876;9.372;2023-04-25T05:52:27;2.03;;;1.50;;
8098;SDS011;4092;47.876;9.372;2023-04-25T05:54:58;3.00;;;2.63;;
8098;SDS011;4092;47.876;9.372;2023-04-25T05:57:25;2.00;;;1.90;;
8098;SDS011;4092;47.876;9.372;2023-04-25T05:59:53;5.20;;;2.43;;
8098;SDS011;4092;47.876;9.372;2023-04-25T06:02:20;4.93;;;2.20;;
8098;SDS011;4092;47.876;9.372;2023-04-25T06:04:51;6.03;;;2.90;;
8098;SDS011;4092;47.876;9.372;2023-04-25T06:07:20;2.93;;;2.37;;
8098;SDS011;4092;47.876;9.372;2023-04-25T06:09:49;4.80;;;2.10;;
8098;SDS011;4092;47.876;9.372;2023-04-25T06:12:19;2.27;;;1.97;;
8098;SDS011;4092;47.876;9.372;2023-04-25T06:14:46;2.00;;;1.63;;
8098;SDS011;4092;47.876;9.372;2023-04-25T06:17:15;2.97;;;1.70;;
8098;SDS011;4092;47.876;9.372;2023-04-25T06:19:42;4.40;;;2.60;;
8098;SDS011;4092;47.876;9.372;2023-04-25T06:22:09;2.03;;;1.50;;
8098;SDS011;4092;47.876;9.372;2023-04-25T06:24:37;2.50;;;2.10;;
8098;SDS011;4092;47.876;9.372;2023-04-25T06:27:04;3.50;;;2.23;;
8098;SDS011;4092;47.876;9.372;2023-04-25T06:29:32;2.40;;;2.20;;
8098;SDS011;4092;47.876;9.372;2023-04-25T06:31:59;3.87;;;2.03;;
8098;SDS011;4092;47.876;9.372;2023-04-25T06:34:26;3.00;;;1.87;;
8098;SDS011;4092;47.876;9.372;2023-04-25T06:36:53;2.80;;;2.10;;
8098;SDS011;4092;47.876;9.372;2023-04-25T06:39:21;1.83;;;1.43;;
8098;SDS011;4092;47.876;9.372;2023-04-25T06:41:49;1.70;;;1.47;;
8098;SDS011;4092;47.876;9.372;2023-04-25T06:44:17;3.43;;;1.73;;
8098;SDS011;4092;47.876;9.372;2023-04-25T06:46:45;1.97;;;1.63;;
8098;SDS011;4092;47.876;9.372;2023-04-25T06:49:12;3.20;;;1.90;;
8098;SDS011;4092;47.876;9.372;2023-04-25T06:51:40;5.43;;;2.20;;
8098;SDS011;4092;47.876;9.372;2023-04-25T06:54:08;2.20;;;1.80;;
8098;SDS011;4092;47.876;9.372;2023-04-25T06:56:35;5.57;;;1.87;;
8098;SDS011;4092;47.876;9.372;2023-04-25T06:59:02;1.90;;;1.77;;
8098;SDS011;4092;47.876;9.372;2023-04-25T07:01:29;3.70;;;1.80;;
8098;SDS011;4092;47.876;9.372;2023-04-25T07:03:58;2.50;;;1.97;;
8098;SDS011;4092;47.876;9.372;2023-04-25T07:06:25;3.93;;;1.37;;
8098;SDS011;4092;47.876;9.372;2023-04-25T07:08:52;1.87;;;1.67;;
8098;SDS011;4092;47.876;9.372;2023-04-25T07:11:20;2.53;;;2.13;;
8098;SDS011;4092;47.876;9.372;2023-04-25T07:13:48;1.40;;;1.30;;
8098;SDS011;4092;47.876;9.372;2023-04-25T07:16:15;4.40;;;1.73;;
8098;SDS011;4092;47.876;9.372;2023-04-25T07:18:43;1.93;;;1.67;;
8098;SDS011;4092;47.876;9.372;2023-04-25T07:21:11;5.43;;;2.43;;
8098;SDS011;4092;47.876;9.372;2023-04-25T07:23:38;3.77;;;1.90;;
8098;SDS011;4092;47.876;9.372;2023-04-25T07:26:05;2.90;;;2.50;;
8098;SDS011;4092;47.876;9.372;2023-04-25T07:28:33;2.37;;;2.17;;
8098;SDS011;4092;47.876;9.372;2023-04-25T07:31:00;1.70;;;1.53;;
8098;SDS011;4092;47.876;9.372;2023-04-25T07:33:29;3.13;;;1.53;;
8098;SDS011;4092;47.876;9.372;2023-04-25T07:35:59;3.70;;;1.80;;
8098;SDS011;4092;47.876;9.372;2023-04-25T07:38:28;1.60;;;1.50;;
8098;SDS011;4092;47.876;9.372;2023-04-25T07:40:55;3.17;;;1.87;;
8098;SDS011;4092;47.876;9.372;2023-04-25T07:43:22;6.70;;;2.13;;
8098;SDS011;4092;47.876;9.372;2023-04-25T07:45:49;3.53;;;1.73;;
8098;SDS011;4092;47.876;9.372;2023-04-25T07:48:17;2.37;;;1.80;;
8098;SDS011;4092;47.876;9.372;2023-04-25T07:50:44;4.30;;;2.30;;
8098;SDS011;4092;47.876;9.372;2023-04-25T07:53:12;2.10;;;1.70;;
8098;SDS011;4092;47.876;9.372;2023-04-25T07:55:40;2.80;;;2.50;;
8098;SDS011;4092;47.876;9.372;2023-04-25T07:58:08;2.83;;;1.90;;
8098;SDS011;4092;47.876;9.372;2023-04-25T08:00:35;2.50;;;1.50;;
8098;SDS011;4092;47.876;9.372;2023-04-25T08:03:03;3.10;;;2.00;;
8098;SDS011;4092;47.876;9.372;2023-04-25T08:05:30;2.50;;;1.67;;
8098;SDS011;4092;47.876;9.372;2023-04-25T08:07:57;4.03;;;2.47;;
8098;SDS011;4092;47.876;9.372;2023-04-25T08:10:27;3.03;;;2.70;;
8098;SDS011;4092;47.876;9.372;2023-04-25T08:12:56;2.77;;;1.60;;
8098;SDS011;4092;47.876;9.372;2023-04-25T08:15:24;3.53;;;2.20;;
8098;SDS011;4092;47.876;9.372;2023-04-25T08:17:51;3.80;;;1.33;;
8098;SDS011;4092;47.876;9.372;2023-04-25T08:20:20;1.60;;;1.20;;
8098;SDS011;4092;47.876;9.372;2023-04-25T08:22:48;0.90;;;0.70;;
8098;SDS011;4092;47.876;9.372;2023-04-25T08:25:16;1.70;;;0.87;;
8098;SDS011;4092;47.876;9.372;2023-04-25T08:27:43;1.10;;;0.80;;
8098;SDS011;4092;47.876;9.372;2023-04-25T08:30:15;1.37;;;1.23;;
8098;SDS011;4092;47.876;9.372;2023-04-25T08:32:42;1.63;;;1.30;;
8098;SDS011;4092;47.876;9.372;2023-04-25T08:35:13;1.30;;;1.20;;
8098;SDS011;4092;47.876;9.372;2023-04-25T08:37:41;0.93;;;0.80;;
8098;SDS011;4092;47.876;9.372;2023-04-25T08:40:08;3.03;;;0.87;;
8098;SDS011;4092;47.876;9.372;2023-04-25T08:42:41;1.97;;;1.10;;
8098;SDS011;4092;47.876;9.372;2023-04-25T08:45:09;1.20;;;0.90;;
8098;SDS011;4092;47.876;9.372;2023-04-25T08:47:39;1.07;;;0.97;;
8098;SDS011;4092;47.876;9.372;2023-04-25T08:50:06;1.30;;;0.90;;
8098;SDS011;4092;47.876;9.372;2023-04-25T08:52:36;1.40;;;0.90;;
8098;SDS011;4092;47.876;9.372;2023-04-25T08:55:06;1.20;;;1.10;;
8098;SDS011;4092;47.876;9.372;2023-04-25T08:57:35;1.40;;;1.30;;
8098;SDS011;4092;47.876;9.372;2023-04-25T09:00:05;1.10;;;0.80;;
8098;SDS011;4092;47.876;9.372;2023-04-25T09:02:34;3.93;;;1.43;;
8098;SDS011;4092;47.876;9.372;2023-04-25T09:05:03;1.13;;;1.03;;
8098;SDS011;4092;47.876;9.372;2023-04-25T09:07:31;1.00;;;0.90;;
8098;SDS011;4092;47.876;9.372;2023-04-25T09:09:58;2.13;;;1.73;;
8098;SDS011;4092;47.876;9.372;2023-04-25T09:12:28;1.30;;;0.90;;
8098;SDS011;4092;47.876;9.372;2023-04-25T09:15:05;1.00;;;0.80;;
8098;SDS011;4092;47.876;9.372;2023-04-25T09:17:36;1.10;;;1.00;;
8098;SDS011;4092;47.876;9.372;2023-04-25T09:20:08;1.60;;;1.07;;
8098;SDS011;4092;47.876;9.372;2023-04-25T09:22:37;1.00;;;0.80;;
8098;SDS011;4092;47.876;9.372;2023-04-25T09:25:10;1.63;;;1.10;;
8098;SDS011;4092;47.876;9.372;2023-04-25T09:27:48;1.10;;;0.90;;
8098;SDS011;4092;47.876;9.372;2023-04-25T09:30:17;2.37;;;1.47;;
8098;SDS011;4092;47.876;9.372;2023-04-25T09:32:44;1.47;;;1.20;;
8098;SDS011;4092;47.876;9.372;2023-04-25T09:35:13;1.40;;;1.13;;
8098;SDS011;4092;47.876;9.372;2023-04-25T09:37:50;1.30;;;0.73;;
8098;SDS011;4092;47.876;9.372;2023-04-25T09:40:17;1.37;;;1.27;;
8098;SDS011;4092;47.876;9.372;2023-04-25T09:42:44;2.10;;;1.20;;
8098;SDS011;4092;47.876;9.372;2023-04-25T09:45:13;1.67;;;1.00;;
8098;SDS011;4092;47.876;9.372;2023-04-25T09:47:40;1.47;;;1.00;;
8098;SDS011;4092;47.876;9.372;2023-04-25T09:50:15;1.10;;;0.80;;
8098;SDS011;4092;47.876;9.372;2023-04-25T09:52:44;1.73;;;0.80;;
8098;SDS011;4092;47.876;9.372;2023-04-25T09:55:11;1.20;;;0.90;;
8098;SDS011;4092;47.876;9.372;2023-04-25T09:57:40;0.90;;;0.80;;
8098;SDS011;4092;47.876;9.372;2023-04-25T10:00:09;1.23;;;0.83;;
8098;SDS011;4092;47.876;9.372;2023-04-25T10:02:39;1.17;;;1.03;;
8098;SDS011;4092;47.876;9.372;2023-04-25T10:05:10;1.03;;;0.80;;
8098;SDS011;4092;47.876;9.372;2023-04-25T10:07:39;0.90;;;0.70;;
8098;SDS011;4092;47.876;9.372;2023-04-25T10:10:07;1.10;;;0.80;;
8098;SDS011;4092;47.876;9.372;2023-04-25T10:12:38;1.00;;;0.80;;
8098;SDS011;4092;47.876;9.372;2023-04-25T10:15:08;1.23;;;0.80;;
8098;SDS011;4092;47.876;9.372;2023-04-25T10:17:38;0.90;;;0.70;;
8098;SDS011;4092;47.876;9.372;2023-04-25T10:20:08;0.90;;;0.70;;
8098;SDS011;4092;47.876;9.372;2023-04-25T10:22:42;1.90;;;1.20;;
8098;SDS011;4092;47.876;9.372;2023-04-25T10:25:13;1.00;;;0.90;;
8098;SDS011;4092;47.876;9.372;2023-04-25T10:27:41;0.90;;;0.60;;
8098;SDS011;4092;47.876;9.372;2023-04-25T10:30:09;0.90;;;0.70;;
8098;SDS011;4092;47.876;9.372;2023-04-25T10:32:41;0.90;;;0.63;;
8098;SDS011;4092;47.876;9.372;2023-04-25T10:35:11;0.90;;;0.60;;
8098;SDS011;4092;47.876;9.372;2023-04-25T10:40:40;0.90;;;0.70;;
8098;SDS011;4092;47.876;9.372;2023-04-25T10:46:02;0.90;;;0.70;;
8098;SDS011;4092;47.876;9.372;2023-04-25T10:48:38;1.47;;;0.83;;
8098;SDS011;4092;47.876;9.372;2023-04-25T10:51:12;1.00;;;0.70;;
8098;SDS011;4092;47.876;9.372;2023-04-25T10:53:45;2.23;;;0.90;;
8098;SDS011;4092;47.876;9.372;2023-04-25T10:56:16;1.30;;;0.80;;
8098;SDS011;4092;47.876;9.372;2023-04-25T10:58:45;0.90;;;0.70;;
8098;SDS011;4092;47.876;9.372;2023-04-25T11:01:15;1.20;;;0.87;;
8098;SDS011;4092;47.876;9.372;2023-04-25T11:03:46;0.90;;;0.80;;
8098;SDS011;4092;47.876;9.372;2023-04-25T11:06:19;1.50;;;0.93;;
8098;SDS011;4092;47.876;9.372;2023-04-25T11:08:50;1.00;;;0.80;;
8098;SDS011;4092;47.876;9.372;2023-04-25T11:11:17;1.50;;;1.07;;
8098;SDS011;4092;47.876;9.372;2023-04-25T11:13:47;1.20;;;0.90;;
8098;SDS011;4092;47.876;9.372;2023-04-25T11:16:15;1.20;;;0.70;;
8098;SDS011;4092;47.876;9.372;2023-04-25T11:18:43;1.23;;;0.93;;
8098;SDS011;4092;47.876;9.372;2023-04-25T11:21:11;0.97;;;0.80;;
8098;SDS011;4092;47.876;9.372;2023-04-25T11:23:39;0.90;;;0.60;;
8098;SDS011;4092;47.876;9.372;2023-04-25T11:26:08;1.03;;;0.80;;
8098;SDS011;4092;47.876;9.372;2023-04-25T11:28:36;0.90;;;0.80;;
8098;SDS011;4092;47.876;9.372;2023-04-25T11:31:03;1.23;;;0.77;;
8098;SDS011;4092;47.876;9.372;2023-04-25T11:33:31;0.97;;;0.77;;
8098;SDS011;4092;47.876;9.372;2023-04-25T11:35:59;0.90;;;0.70;;
8098;SDS011;4092;47.876;9.372;2023-04-25T11:38:26;0.90;;;0.70;;
8098;SDS011;4092;47.876;9.372;2023-04-25T11:40:54;1.23;;;0.90;;
8098;SDS011;4092;47.876;9.372;2023-04-25T11:43:22;1.30;;;0.83;;
8098;SDS011;4092;47.876;9.372;2023-04-25T11:45:50;1.77;;;1.23;;
8098;SDS011;4092;47.876;9.372;2023-04-25T11:48:17;1.23;;;1.00;;
8098;SDS011;4092;47.876;9.372;2023-04-25T11:50:46;1.00;;;0.80;;
8098;SDS011;4092;47.876;9.372;2023-04-25T11:53:13;0.90;;;0.70;;
8098;SDS011;4092;47.876;9.372;2023-04-25T11:55:44;0.90;;;0.70;;
8098;SDS011;4092;47.876;9.372;2023-04-25T11:58:12;0.90;;;0.70;;
8098;SDS011;4092;47.876;9.372;2023-04-25T12:00:43;1.07;;;0.73;;
8098;SDS011;4092;47.876;9.372;2023-04-25T12:03:10;1.00;;;0.70;;
8098;SDS011;4092;47.876;9.372;2023-04-25T12:05:37;1.27;;;0.80;;
8098;SDS011;4092;47.876;9.372;2023-04-25T12:08:11;1.00;;;0.90;;
8098;SDS011;4092;47.876;9.372;2023-04-25T12:10:39;1.10;;;0.70;;
8098;SDS011;4092;47.876;9.372;2023-04-25T12:13:20;1.00;;;0.60;;
8098;SDS011;4092;47.876;9.372;2023-04-25T12:15:49;1.00;;;0.70;;
8098;SDS011;4092;47.876;9.372;2023-04-25T12:18:18;0.87;;;0.50;;
8098;SDS011;4092;47.876;9.372;2023-04-25T12:20:46;0.90;;;0.60;;
8098;SDS011;4092;47.876;9.372;2023-04-25T12:23:14;0.90;;;0.60;;
8098;SDS011;4092;47.876;9.372;2023-04-25T12:25:42;0.90;;;0.60;;
8098;SDS011;4092;47.876;9.372;2023-04-25T12:28:12;1.00;;;0.80;;
8098;SDS011;4092;47.876;9.372;2023-04-25T12:30:57;0.90;;;0.60;;
8098;SDS011;4092;47.876;9.372;2023-04-25T12:33:26;0.90;;;0.60;;
8098;SDS011;4092;47.876;9.372;2023-04-25T12:35:54;0.90;;;0.60;;
8098;SDS011;4092;47.876;9.372;2023-04-25T12:38:23;0.90;;;0.60;;
8098;SDS011;4092;47.876;9.372;2023-04-25T12:40:50;0.80;;;0.50;;
8098;SDS011;4092;47.876;9.372;2023-04-25T12:43:18;0.90;;;0.57;;
8098;SDS011;4092;47.876;9.372;2023-04-25T12:45:46;0.90;;;0.60;;
8098;SDS011;4092;47.876;9.372;2023-04-25T12:48:16;0.90;;;0.60;;
8098;SDS011;4092;47.876;9.372;2023-04-25T12:50:43;0.90;;;0.60;;
8098;SDS011;4092;47.876;9.372;2023-04-25T12:53:13;0.90;;;0.70;;
8098;SDS011;4092;47.876;9.372;2023-04-25T12:55:41;0.80;;;0.50;;
8098;SDS011;4092;47.876;9.372;2023-04-25T12:58:13;1.33;;;0.70;;
8098;SDS011;4092;47.876;9.372;2023-04-25T13:00:40;0.90;;;0.60;;
8098;SDS011;4092;47.876;9.372;2023-04-25T13:03:08;0.90;;;0.60;;
8098;SDS011;4092;47.876;9.372;2023-04-25T13:05:38;0.80;;;0.57;;
8098;SDS011;4092;47.876;9.372;2023-04-25T13:08:07;0.90;;;0.60;;
8098;SDS011;4092;47.876;9.372;2023-04-25T13:10:35;1.20;;;0.60;;
8098;SDS011;4092;47.876;9.372;2023-04-25T13:13:04;0.90;;;0.60;;
8098;SDS011;4092;47.876;9.372;2023-04-25T13:15:33;0.90;;;0.60;;
8098;SDS011;4092;47.876;9.372;2023-04-25T13:18:00;0.90;;;0.60;;
8098;SDS011;4092;47.876;9.372;2023-04-25T13:20:29;1.57;;;0.70;;
8098;SDS011;4092;47.876;9.372;2023-04-25T13:25:43;0.90;;;0.60;;
8098;SDS011;4092;47.876;9.372;2023-04-25T13:28:11;0.90;;;0.70;;
8098;SDS011;4092;47.876;9.372;2023-04-25T13:30:38;0.90;;;0.63;;
8098;SDS011;4092;47.876;9.372;2023-04-25T13:33:05;1.10;;;0.70;;
8098;SDS011;4092;47.876;9.372;2023-04-25T13:35:36;0.90;;;0.70;;
8098;SDS011;4092;47.876;9.372;2023-04-25T13:38:05;1.00;;;0.73;;
8098;SDS011;4092;47.876;9.372;2023-04-25T13:40:34;0.90;;;0.63;;
8098;SDS011;4092;47.876;9.372;2023-04-25T13:43:02;0.90;;;0.60;;
8098;SDS011;4092;47.876;9.372;2023-04-25T13:45:43;1.00;;;0.60;;
8098;SDS011;4092;47.876;9.372;2023-04-25T13:48:12;1.00;;;0.63;;
8098;SDS011;4092;47.876;9.372;2023-04-25T13:50:40;1.00;;;0.70;;
8098;SDS011;4092;47.876;9.372;2023-04-25T13:53:12;1.30;;;0.70;;
8098;SDS011;4092;47.876;9.372;2023-04-25T13:55:40;1.30;;;0.80;;
8098;SDS011;4092;47.876;9.372;2023-04-25T13:58:07;1.40;;;0.70;;
8098;SDS011;4092;47.876;9.372;2023-04-25T14:00:35;1.10;;;0.80;;
8098;SDS011;4092;47.876;9.372;2023-04-25T14:03:03;1.00;;;0.70;;
8098;SDS011;4092;47.876;9.372;2023-04-25T14:05:32;1.00;;;0.70;;
8098;SDS011;4092;47.876;9.372;2023-04-25T14:08:05;1.53;;;0.70;;
8098;SDS011;4092;47.876;9.372;2023-04-25T14:10:32;1.00;;;0.70;;
8098;SDS011;4092;47.876;9.372;2023-04-25T14:13:12;1.00;;;0.80;;
8098;SDS011;4092;47.876;9.372;2023-04-25T14:15:41;0.90;;;0.60;;
8098;SDS011;4092;47.876;9.372;2023-04-25T14:18:08;0.90;;;0.60;;
8098;SDS011;4092;47.876;9.372;2023-04-25T14:20:35;1.00;;;0.60;;
8098;SDS011;4092;47.876;9.372;2023-04-25T14:23:02;1.10;;;0.80;;
8098;SDS011;4092;47.876;9.372;2023-04-25T14:25:30;1.43;;;1.03;;
8098;SDS011;4092;47.876;9.372;2023-04-25T14:27:57;1.30;;;0.80;;
8098;SDS011;4092;47.876;9.372;2023-04-25T14:30:26;2.90;;;1.10;;
8098;SDS011;4092;47.876;9.372;2023-04-25T14:32:53;1.20;;;0.80;;
8098;SDS011;4092;47.876;9.372;2023-04-25T14:35:20;1.20;;;0.83;;
8098;SDS011;4092;47.876;9.372;2023-04-25T14:37:47;1.37;;;0.83;;
8098;SDS011;4092;47.876;9.372;2023-04-25T14:40:15;1.00;;;0.80;;
8098;SDS011;4092;47.876;9.372;2023-04-25T14:42:42;4.23;;;2.07;;
8098;SDS011;4092;47.876;9.372;2023-04-25T14:45:10;1.93;;;0.90;;
8098;SDS011;4092;47.876;9.372;2023-04-25T14:47:39;1.20;;;1.03;;
8098;SDS011;4092;47.876;9.372;2023-04-25T14:50:07;2.23;;;1.30;;
8098;SDS011;4092;47.876;9.372;2023-04-25T14:52:35;1.00;;;0.70;;
8098;SDS011;4092;47.876;9.372;2023-04-25T14:55:02;1.10;;;0.87;;
8098;SDS011;4092;47.876;9.372;2023-04-25T14:57:31;1.97;;;0.87;;
8098;SDS011;4092;47.876;9.372;2023-04-25T14:59:58;1.77;;;1.00;;
8098;SDS011;4092;47.876;9.372;2023-04-25T15:02:25;1.00;;;0.80;;
8098;SDS011;4092;47.876;9.372;2023-04-25T15:04:54;2.57;;;1.23;;
8098;SDS011;4092;47.876;9.372;2023-04-25T15:07:22;1.13;;;0.77;;
8098;SDS011;4092;47.876;9.372;2023-04-25T15:09:49;1.00;;;0.80;;
8098;SDS011;4092;47.876;9.372;2023-04-25T15:12:18;1.30;;;0.90;;
8098;SDS011;4092;47.876;9.372;2023-04-25T15:14:45;2.20;;;1.00;;
8098;SDS011;4092;47.876;9.372;2023-04-25T15:17:12;1.67;;;0.90;;
8098;SDS011;4092;47.876;9.372;2023-04-25T15:19:39;1.00;;;0.70;;
8098;SDS011;4092;47.876;9.372;2023-04-25T15:22:09;1.40;;;0.80;;
8098;SDS011;4092;47.876;9.372;2023-04-25T15:24:36;1.10;;;0.80;;
8098;SDS011;4092;47.876;9.372;2023-04-25T15:27:03;1.23;;;0.80;;
8098;SDS011;4092;47.876;9.372;2023-04-25T15:29:31;1.10;;;0.73;;